createdAt,value
2023-09-26T00:02:19.720Z,154596.94
2023-09-26T00:04:55.673Z,154590.41
2023-09-26T00:07:33.158Z,154577.44
2023-09-26T00:10:04.091Z,154583.91
2023-09-26T00:12:35.008Z,154587.84
2023-09-26T00:15:07.248Z,154581.31
2023-09-26T00:17:38.198Z,154578.72
2023-09-26T00:20:31.270Z,154567.00
2023-09-26T00:23:03.050Z,154551.41
2023-09-26T00:25:36.200Z,154541.00
2023-09-26T00:28:11.044Z,154522.84
2023-09-26T00:30:44.179Z,154528.03
2023-09-26T00:33:14.991Z,154518.91
2023-09-26T00:35:48.215Z,154525.41
2023-09-26T00:38:19.637Z,154512.38
2023-09-26T00:40:53.647Z,154496.78
2023-09-26T00:43:28.925Z,154487.69
2023-09-26T00:46:00.370Z,154489.03
2023-09-26T00:48:31.176Z,154466.91
2023-09-26T00:51:04.508Z,154465.63
2023-09-26T00:53:34.817Z,154459.13
2023-09-26T00:56:05.292Z,154448.75
2023-09-26T00:58:35.877Z,154447.41
2023-09-26T01:01:08.581Z,154440.91
2023-09-26T01:03:40.643Z,154431.81
2023-09-26T01:06:14.595Z,154437.00
2023-09-26T01:08:48.105Z,154440.91
2023-09-26T01:11:19.617Z,154433.09
2023-09-26T01:13:52.039Z,154448.75
2023-09-26T01:16:22.859Z,154455.22
2023-09-26T01:18:53.914Z,154442.19
2023-09-26T01:21:26.729Z,154437.00
2023-09-26T01:24:01.490Z,154425.31
2023-09-26T01:26:39.388Z,154418.84
2023-09-26T01:29:11.119Z,154407.13
2023-09-26T01:31:44.224Z,154404.53
2023-09-26T01:34:15.815Z,154392.81
2023-09-26T01:36:46.407Z,154373.31
2023-09-26T01:39:18.991Z,154370.75
2023-09-26T01:41:50.720Z,154379.84
2023-09-26T01:44:21.108Z,154361.66
2023-09-26T01:46:52.647Z,154352.53
2023-09-26T01:49:23.898Z,154340.88
2023-09-26T01:51:56.274Z,154333.03
2023-09-26T01:54:30.555Z,154338.25
2023-09-26T01:57:02.864Z,154336.94
2023-09-26T01:59:33.264Z,154318.75
2023-09-26T02:02:06.825Z,154316.19
2023-09-26T02:04:37.628Z,154317.47
2023-09-26T02:07:09.793Z,154304.44
2023-09-26T02:09:42.320Z,154307.03
2023-09-26T02:12:13.148Z,154301.81
2023-09-26T02:14:45.294Z,154287.53
2023-09-26T02:17:15.815Z,154269.38
2023-09-26T02:19:46.942Z,154266.75
2023-09-26T02:22:19.928Z,154268.03
2023-09-26T02:24:56.628Z,154265.47
2023-09-26T02:27:27.406Z,154256.38
2023-09-26T02:29:59.832Z,154249.88
2023-09-26T02:32:32.020Z,154247.25
2023-09-26T02:35:02.377Z,154232.97
2023-09-26T02:37:48.365Z,154226.50
2023-09-26T02:40:23.602Z,154230.41
2023-09-26T02:42:53.570Z,154222.56
2023-09-26T02:45:25.028Z,154223.88
2023-09-26T02:47:55.653Z,154214.81
2023-09-26T02:50:26.068Z,154210.91
2023-09-26T02:52:56.386Z,154218.66
2023-09-26T02:55:28.997Z,154213.47
2023-09-26T02:57:58.905Z,154213.47
2023-09-26T03:00:30.117Z,154205.72
2023-09-26T03:03:02.106Z,154221.28
2023-09-26T03:05:32.196Z,154221.28
2023-09-26T03:08:03.939Z,154223.88
2023-09-26T03:10:37.645Z,154225.19
2023-09-26T03:13:08.211Z,154210.91
2023-09-26T03:15:38.342Z,154222.56
2023-09-26T03:18:08.769Z,154222.56
2023-09-26T03:20:41.114Z,154234.25
2023-09-26T03:23:10.986Z,154252.47
2023-09-26T03:25:43.462Z,154239.44
2023-09-26T03:28:15.599Z,154240.78
2023-09-26T03:30:48.075Z,154247.25
2023-09-26T03:33:18.396Z,154257.66
2023-09-26T03:35:49.463Z,154255.06
2023-09-26T03:38:22.536Z,154264.13
2023-09-26T03:41:00.409Z,154268.03
2023-09-26T03:43:31.097Z,154284.97
2023-09-26T03:46:05.666Z,154277.13
2023-09-26T03:48:39.923Z,154273.22
2023-09-26T03:51:13.436Z,154270.66
2023-09-26T03:53:45.526Z,154271.94
2023-09-26T03:56:26.118Z,154269.38
2023-09-26T03:58:57.026Z,154273.22
2023-09-26T04:01:27.736Z,154275.84
2023-09-26T04:03:57.960Z,154262.84
2023-09-26T04:06:27.916Z,154260.28
2023-09-26T04:08:58.012Z,154266.75
2023-09-26T04:11:31.858Z,154268.03
2023-09-26T04:14:03.771Z,154260.28
2023-09-26T04:16:33.713Z,154253.75
2023-09-26T04:19:03.769Z,154262.84
2023-09-26T04:21:36.574Z,154253.75
2023-09-26T04:24:07.051Z,154249.88
2023-09-26T04:26:40.158Z,154249.88
2023-09-26T04:29:11.638Z,154252.47
2023-09-26T04:31:41.731Z,154242.06
2023-09-26T04:34:11.833Z,154243.34
2023-09-26T04:36:41.725Z,154238.16
2023-09-26T04:39:11.829Z,154242.06
2023-09-26T04:41:44.625Z,154244.69
2023-09-26T04:44:14.485Z,154239.44
2023-09-26T04:46:44.590Z,154240.78
2023-09-26T04:49:14.613Z,154236.88
2023-09-26T04:51:44.540Z,154231.69
2023-09-26T04:54:14.342Z,154230.41
2023-09-26T04:56:46.926Z,154230.41
2023-09-26T04:59:17.070Z,154230.41
2023-09-26T05:01:47.164Z,154232.97
2023-09-26T05:04:17.156Z,154223.88
2023-09-26T05:06:47.770Z,154225.19
2023-09-26T05:09:19.462Z,154226.50
2023-09-26T05:11:51.969Z,154238.16
2023-09-26T05:14:21.816Z,154239.44
2023-09-26T05:16:53.157Z,154255.06
2023-09-26T05:19:23.038Z,154264.13
2023-09-26T05:21:52.992Z,154268.03
2023-09-26T05:24:23.745Z,154282.34
2023-09-26T05:26:56.249Z,154292.72
2023-09-26T05:29:26.128Z,154307.03
2023-09-26T05:31:56.155Z,154316.19
2023-09-26T05:34:28.628Z,154326.56
2023-09-26T05:36:58.571Z,154331.75
2023-09-26T05:39:28.516Z,154340.88
2023-09-26T05:42:01.445Z,154356.44
2023-09-26T05:44:33.954Z,154387.63
2023-09-26T05:47:03.922Z,154404.53
2023-09-26T05:49:34.153Z,154426.63
2023-09-26T05:52:04.130Z,154453.94
2023-09-26T05:54:43.019Z,154476.00
2023-09-26T05:57:15.758Z,154492.94
2023-09-26T05:59:45.589Z,154513.72
2023-09-26T06:02:17.450Z,154512.38
2023-09-26T06:04:48.557Z,154534.50
2023-09-26T06:07:18.790Z,154548.81
2023-09-26T06:10:05.405Z,154561.78
2023-09-26T06:12:41.468Z,154574.81
2023-09-26T06:15:13.044Z,154594.38
2023-09-26T06:17:44.405Z,154606.06
2023-09-26T06:20:15.443Z,154616.44
2023-09-26T06:22:45.367Z,154616.44
2023-09-26T06:25:15.286Z,154646.34
2023-09-26T06:27:47.793Z,154652.91
2023-09-26T06:30:17.796Z,154658.09
2023-09-26T06:32:48.757Z,154667.19
2023-09-26T06:35:18.679Z,154681.47
2023-09-26T06:37:50.548Z,154703.59
2023-09-26T06:40:20.732Z,154704.88
2023-09-26T06:42:53.194Z,154712.72
2023-09-26T06:45:23.201Z,154710.09
2023-09-26T06:47:53.260Z,154734.81
2023-09-26T06:50:25.200Z,154755.59
2023-09-26T06:52:55.194Z,154781.66
2023-09-26T06:55:25.131Z,154781.66
2023-09-26T06:57:57.669Z,154798.53
2023-09-26T07:00:27.967Z,154825.91
2023-09-26T07:02:57.999Z,154857.16
2023-09-26T07:05:30.383Z,154845.38
2023-09-26T07:08:00.456Z,154861.06
2023-09-26T07:10:30.291Z,154862.34
2023-09-26T07:13:02.959Z,154923.50
2023-09-26T07:15:33.128Z,154943.03
2023-09-26T07:18:07.929Z,154903.97
2023-09-26T07:20:37.882Z,154950.84
2023-09-26T07:23:09.470Z,154949.50
2023-09-26T07:25:40.061Z,154987.28
2023-09-26T07:28:13.041Z,155043.22
2023-09-26T07:30:43.249Z,155086.22
2023-09-26T07:33:13.336Z,155150.06
2023-09-26T07:35:43.230Z,155164.38
2023-09-26T07:38:13.140Z,155144.84
2023-09-26T07:40:44.808Z,155193.00
2023-09-26T07:43:17.575Z,155194.34
2023-09-26T07:45:47.688Z,155236.00
2023-09-26T07:48:17.637Z,155256.81
2023-09-26T07:50:47.533Z,155284.19
2023-09-26T07:53:17.479Z,155285.47
2023-09-26T07:55:47.415Z,155311.50
2023-09-26T07:58:19.994Z,155396.25
2023-09-26T08:00:50.113Z,155410.56
2023-09-26T08:03:20.155Z,155447.03
2023-09-26T08:05:53.190Z,155435.31
2023-09-26T08:08:23.105Z,155497.91
2023-09-26T08:10:52.979Z,155517.41
2023-09-26T08:13:25.863Z,155501.78
2023-09-26T08:15:57.152Z,155576.09
2023-09-26T08:18:27.433Z,155646.50
2023-09-26T08:20:59.338Z,155672.59
2023-09-26T08:23:29.728Z,155666.03
2023-09-26T08:26:00.143Z,155603.50
2023-09-26T08:28:33.824Z,155696.03
2023-09-26T08:31:07.261Z,155737.78
2023-09-26T08:33:37.212Z,155699.94
2023-09-26T08:36:07.508Z,155827.81
2023-09-26T08:38:40.082Z,155826.50
2023-09-26T08:41:10.176Z,155848.66
2023-09-26T08:43:42.895Z,155915.16
2023-09-26T08:46:13.142Z,155904.72
2023-09-26T08:48:43.755Z,155913.88
2023-09-26T08:51:14.441Z,155997.41
2023-09-26T08:53:44.401Z,155934.72
2023-09-26T08:56:14.384Z,156011.78
2023-09-26T08:58:47.226Z,155996.13
2023-09-26T09:01:17.470Z,155917.78
2023-09-26T09:03:47.990Z,155891.72
2023-09-26T09:06:18.554Z,155860.38
2023-09-26T09:08:48.461Z,155856.50
2023-09-26T09:11:18.396Z,155834.31
2023-09-26T09:13:53.548Z,155887.78
2023-09-26T09:16:23.610Z,155981.78
2023-09-26T09:18:58.845Z,156047.00
2023-09-26T09:21:31.883Z,156071.78
2023-09-26T09:24:02.500Z,156049.59
2023-09-26T09:26:33.510Z,156044.38
2023-09-26T09:29:19.261Z,155971.34
2023-09-26T09:31:52.377Z,156028.72
2023-09-26T09:34:23.315Z,155953.00
2023-09-26T09:36:53.228Z,156007.84
2023-09-26T09:39:24.135Z,156040.44
2023-09-26T09:41:59.974Z,156053.50
2023-09-26T09:44:32.244Z,156112.25
2023-09-26T09:47:06.997Z,156177.53
2023-09-26T09:49:41.261Z,156270.25
2023-09-26T09:52:13.126Z,156315.91
2023-09-26T09:54:46.844Z,156334.16
2023-09-26T09:57:18.639Z,156258.47
2023-09-26T09:59:48.901Z,156330.28
2023-09-26T10:02:22.023Z,156343.31
2023-09-26T10:04:57.572Z,156433.47
2023-09-26T10:07:28.028Z,156323.72
2023-09-26T10:09:58.643Z,156360.38
2023-09-26T10:12:34.585Z,156433.47
2023-09-26T10:15:07.254Z,156490.94
2023-09-26T10:17:40.027Z,156556.31
2023-09-26T10:20:39.618Z,156578.50
2023-09-26T10:23:13.497Z,156612.47
2023-09-26T10:25:43.363Z,156603.31
2023-09-26T10:28:13.298Z,156668.63
2023-09-26T10:30:47.831Z,156672.56
2023-09-26T10:36:12.337Z,156719.63
2023-09-26T10:38:42.191Z,156762.78
2023-09-26T10:41:12.070Z,156786.31
2023-09-26T10:46:31.852Z,156808.50
2023-09-26T10:49:04.461Z,156843.81
2023-09-26T10:51:34.369Z,156818.97
2023-09-26T10:54:04.243Z,156850.38
2023-09-26T10:56:36.106Z,156788.91
2023-09-26T10:59:07.065Z,156832.06
2023-09-26T11:01:40.517Z,156839.91
2023-09-26T11:04:13.236Z,156859.53
2023-09-26T11:09:33.965Z,156914.47
2023-09-26T11:12:03.976Z,156968.03
2023-09-26T11:14:31.284Z,156907.91
2023-09-26T11:17:02.283Z,156935.38
2023-09-26T11:19:36.128Z,156971.97
2023-09-26T11:22:09.180Z,157008.56
2023-09-26T11:24:39.177Z,157004.69
2023-09-26T11:27:10.135Z,157002.06
2023-09-26T11:29:40.670Z,157011.22
2023-09-26T11:32:11.886Z,157049.09
2023-09-26T11:34:46.200Z,157070.06
2023-09-26T11:37:16.152Z,157066.13
2023-09-26T11:39:55.085Z,157032.13
2023-09-26T11:42:25.121Z,157070.06
2023-09-26T11:44:55.508Z,157092.31
2023-09-26T11:47:25.733Z,157118.47
2023-09-26T11:49:58.729Z,157134.22
2023-09-26T11:52:29.222Z,157073.94
2023-09-26T11:54:59.183Z,157139.44
2023-09-26T11:57:29.085Z,157182.56
2023-09-26T11:59:58.930Z,157195.66
2023-09-26T12:02:29.179Z,157191.72
2023-09-26T12:05:03.007Z,157224.47
2023-09-26T12:07:32.942Z,157210.06
2023-09-26T12:10:02.982Z,157212.66
2023-09-26T12:12:32.903Z,157143.31
2023-09-26T12:15:17.954Z,157203.50
2023-09-26T12:17:48.221Z,157233.56
2023-09-26T12:20:23.126Z,157227.06
2023-09-26T12:22:54.048Z,157221.81
2023-09-26T12:25:25.147Z,157183.88
2023-09-26T12:27:55.270Z,157210.06
2023-09-26T12:30:25.817Z,157172.09
2023-09-26T12:32:56.115Z,157228.34
2023-09-26T12:35:28.653Z,157189.09
2023-09-26T12:37:58.617Z,157195.66
2023-09-26T12:40:31.632Z,157182.56
2023-09-26T12:43:01.774Z,157206.13
2023-09-26T12:45:31.867Z,157206.13
2023-09-26T12:48:03.956Z,157189.09
2023-09-26T12:50:38.122Z,157238.81
2023-09-26T12:53:08.320Z,157297.75
2023-09-26T12:55:38.266Z,157229.69
2023-09-26T12:58:08.244Z,157088.38
2023-09-26T13:00:38.528Z,157029.53
2023-09-26T13:03:10.739Z,156969.41
2023-09-26T13:05:43.411Z,157050.44
2023-09-26T13:08:13.390Z,156965.47
2023-09-26T13:10:43.348Z,156905.31
2023-09-26T13:13:13.695Z,156900.03
2023-09-26T13:15:43.714Z,156974.63
2023-09-26T13:18:14.097Z,156999.47
2023-09-26T13:20:46.565Z,157029.53
2023-09-26T13:23:16.557Z,157049.09
2023-09-26T13:25:46.462Z,157066.13
2023-09-26T13:28:16.373Z,157071.38
2023-09-26T13:30:49.312Z,157087.09
2023-09-26T13:33:19.669Z,157101.50
2023-09-26T13:35:52.220Z,157096.25
2023-09-26T13:38:22.236Z,157085.81
2023-09-26T13:40:54.549Z,157091.03
2023-09-26T13:43:24.463Z,157100.19
2023-09-26T13:45:54.480Z,157060.91
2023-09-26T13:48:24.403Z,157067.44
2023-09-26T13:50:56.912Z,157072.66
2023-09-26T13:53:28.941Z,157045.22
2023-09-26T13:55:58.870Z,157038.66
2023-09-26T13:58:28.725Z,157024.31
2023-09-26T14:00:58.788Z,157026.91
2023-09-26T14:03:31.109Z,156983.72
2023-09-26T14:06:04.028Z,156978.50
2023-09-26T14:08:34.028Z,156960.22
2023-09-26T14:11:03.985Z,156962.81
2023-09-26T14:13:33.914Z,156948.44
2023-09-26T14:16:03.782Z,156962.81
2023-09-26T14:18:35.839Z,156943.19
2023-09-26T14:21:11.349Z,156935.38
2023-09-26T14:23:41.231Z,156927.53
2023-09-26T14:26:11.223Z,156909.19
2023-09-26T14:28:42.831Z,156898.69
2023-09-26T14:31:12.907Z,156892.19
2023-09-26T14:33:44.074Z,156924.94
2023-09-26T14:36:16.923Z,156907.91
2023-09-26T14:38:46.835Z,156896.13
2023-09-26T14:41:16.760Z,156871.28
2023-09-26T14:43:46.726Z,156856.88
2023-09-26T14:46:18.010Z,156845.16
2023-09-26T14:48:47.936Z,156851.66
2023-09-26T14:51:21.295Z,156825.53
2023-09-26T14:53:51.156Z,156816.38
2023-09-26T14:56:21.240Z,156798.06
2023-09-26T14:58:52.250Z,156794.13
2023-09-26T15:01:22.375Z,156773.22
2023-09-26T15:03:54.028Z,156748.41
2023-09-26T15:06:26.629Z,156727.50
2023-09-26T15:08:56.880Z,156736.66
2023-09-26T15:11:26.800Z,156710.47
2023-09-26T15:13:56.757Z,156683.00
2023-09-26T15:16:26.681Z,156676.50
2023-09-26T15:18:56.639Z,156662.13
2023-09-26T15:21:29.158Z,156634.69
2023-09-26T15:23:59.073Z,156647.75
2023-09-26T15:26:28.936Z,156628.13
2023-09-26T15:28:59.898Z,156600.72
2023-09-26T15:31:29.801Z,156583.72
2023-09-26T15:33:59.725Z,156586.34
2023-09-26T15:36:32.204Z,156556.31
2023-09-26T15:39:04.279Z,156540.59
2023-09-26T15:41:34.139Z,156492.25
2023-09-26T15:44:04.011Z,156488.31
2023-09-26T15:46:35.343Z,156470.06
2023-09-26T15:49:05.606Z,156454.34
2023-09-26T15:51:38.126Z,156429.53
2023-09-26T15:54:08.128Z,156407.34
2023-09-26T15:56:38.027Z,156372.09
2023-09-26T15:59:08.049Z,156355.09
2023-09-26T16:01:38.156Z,156317.22
2023-09-26T16:04:08.461Z,156288.47
2023-09-26T16:06:40.998Z,156241.50
2023-09-26T16:09:11.244Z,156195.84
2023-09-26T16:11:41.136Z,156164.41
2023-09-26T16:14:11.015Z,156143.53
2023-09-26T16:16:41.025Z,156086.16
2023-09-26T16:19:10.988Z,156053.50
2023-09-26T16:21:43.481Z,156063.94
2023-09-26T16:24:13.325Z,156057.44
2023-09-26T16:26:43.237Z,156049.59
2023-09-26T16:29:13.191Z,156023.50
2023-09-26T16:31:43.206Z,155984.34
2023-09-26T16:34:13.154Z,155946.50
2023-09-26T16:36:46.125Z,155900.81
2023-09-26T16:39:16.319Z,155882.56
2023-09-26T16:41:46.193Z,155874.72
2023-09-26T16:44:16.114Z,155829.09
2023-09-26T16:46:46.288Z,155762.56
2023-09-26T16:49:16.239Z,155739.06
2023-09-26T16:51:51.195Z,155728.66
2023-09-26T16:54:21.068Z,155675.19
2023-09-26T16:56:52.775Z,155646.50
2023-09-26T16:59:24.478Z,155586.53
2023-09-26T17:01:54.686Z,155585.25
2023-09-26T17:04:24.591Z,155551.34
2023-09-26T17:06:58.069Z,155520.03
2023-09-26T17:09:28.339Z,155443.16
2023-09-26T17:11:58.842Z,155397.53
2023-09-26T17:14:31.561Z,155413.22
2023-09-26T17:17:03.611Z,155383.25
2023-09-26T17:19:33.625Z,155358.50
2023-09-26T17:22:06.578Z,155335.03
2023-09-26T17:24:36.845Z,155301.09
2023-09-26T17:27:08.348Z,155298.53
2023-09-26T17:29:38.722Z,155306.31
2023-09-26T17:32:11.049Z,155273.78
2023-09-26T17:34:42.924Z,155221.66
2023-09-26T17:37:16.015Z,155176.09
2023-09-26T17:39:46.361Z,155176.09
2023-09-26T17:42:16.260Z,155177.38
2023-09-26T17:44:48.682Z,155157.84
2023-09-26T17:47:20.890Z,155117.47
2023-09-26T17:49:57.188Z,155107.06
2023-09-26T17:52:31.969Z,155097.94
2023-09-26T17:55:04.065Z,155092.69
2023-09-26T17:57:41.038Z,155028.91
2023-09-26T18:00:18.891Z,155005.50
2023-09-26T18:02:50.138Z,154988.56
2023-09-26T18:05:25.469Z,154969.03
2023-09-26T18:08:01.521Z,154957.34
2023-09-26T18:10:34.529Z,154943.03
2023-09-26T18:13:04.382Z,154957.34
2023-09-26T18:15:39.402Z,154913.09
2023-09-26T18:18:09.839Z,154915.72
2023-09-26T18:20:40.135Z,154866.28
2023-09-26T18:23:15.369Z,154867.56
2023-09-26T18:25:45.335Z,154849.28
2023-09-26T18:28:15.923Z,154851.94
2023-09-26T18:30:46.050Z,154845.38
2023-09-26T18:33:16.062Z,154810.25
2023-09-26T18:35:46.337Z,154808.94
2023-09-26T18:38:18.904Z,154806.38
2023-09-26T18:40:48.921Z,154794.63
2023-09-26T18:43:18.816Z,154759.53
2023-09-26T18:45:49.722Z,154747.81
2023-09-26T18:48:20.852Z,154720.50
2023-09-26T18:50:50.905Z,154760.81
2023-09-26T18:53:23.662Z,154772.53
2023-09-26T18:55:53.649Z,154781.66
2023-09-26T18:58:24.817Z,154741.34
2023-09-26T19:00:54.885Z,154734.81
2023-09-26T19:03:25.216Z,154694.50
2023-09-26T19:05:55.873Z,154691.91
2023-09-26T19:08:38.587Z,154663.28
2023-09-26T19:11:09.706Z,154647.69
2023-09-26T19:13:51.436Z,154651.56
2023-09-26T19:16:31.991Z,154655.47
2023-09-26T19:19:05.875Z,154654.19
2023-09-26T19:21:40.084Z,154642.50
2023-09-26T19:24:20.635Z,154598.28
2023-09-26T19:26:59.242Z,154594.38
2023-09-26T19:29:31.709Z,154590.41
2023-09-26T19:32:08.447Z,154567.00
2023-09-26T19:34:47.695Z,154563.13
2023-09-26T19:37:18.918Z,154554.03
2023-09-26T19:39:51.543Z,154542.28
2023-09-26T19:42:22.005Z,154517.59
2023-09-26T19:44:52.270Z,154517.59
2023-09-26T19:47:27.189Z,154499.41
2023-09-26T19:49:57.161Z,154483.81
2023-09-26T19:52:27.462Z,154502.00
2023-09-26T19:54:59.993Z,154476.00
2023-09-26T19:57:29.932Z,154425.31
2023-09-26T20:00:02.428Z,154438.34
2023-09-26T20:02:41.364Z,154421.41
2023-09-26T20:05:13.671Z,154427.91
2023-09-26T20:07:43.715Z,154429.25
2023-09-26T20:10:18.333Z,154450.03
2023-09-26T20:12:48.203Z,154429.25
2023-09-26T20:15:23.668Z,154413.66
2023-09-26T20:17:54.539Z,154412.31
2023-09-26T20:20:24.582Z,154403.22
2023-09-26T20:22:57.009Z,154385.06
2023-09-26T20:25:29.948Z,154392.81
2023-09-26T20:27:59.818Z,154405.84
2023-09-26T20:30:30.189Z,154398.00
2023-09-26T20:33:00.174Z,154424.03
2023-09-26T20:35:30.213Z,154438.34
2023-09-26T20:38:00.233Z,154425.31
2023-09-26T20:40:33.036Z,154407.13
2023-09-26T20:43:04.066Z,154404.53
2023-09-26T20:45:34.278Z,154392.81
2023-09-26T20:48:04.291Z,154399.34
2023-09-26T20:50:34.402Z,154411.03
2023-09-26T20:53:04.981Z,154403.22
2023-09-26T20:55:42.406Z,154391.53
2023-09-26T20:58:12.299Z,154390.25
2023-09-26T21:00:42.405Z,154364.25
2023-09-26T21:03:12.483Z,154366.84
2023-09-26T21:05:42.670Z,154342.16
2023-09-26T21:08:12.746Z,154314.84
2023-09-26T21:10:45.514Z,154333.03
2023-09-26T21:13:15.434Z,154325.28
2023-09-26T21:15:45.519Z,154322.66
2023-09-26T21:18:15.566Z,154309.66
2023-09-26T21:20:45.468Z,154291.44
2023-09-26T21:23:15.380Z,154275.84
2023-09-26T21:25:48.261Z,154269.38
2023-09-26T21:28:18.537Z,154257.66
2023-09-26T21:30:49.762Z,154252.47
2023-09-26T21:33:19.707Z,154220.00
2023-09-26T21:35:49.610Z,154194.00
2023-09-26T21:38:19.515Z,154195.31
2023-09-26T21:40:52.289Z,154195.31
2023-09-26T21:43:23.176Z,154192.69
2023-09-26T21:45:53.158Z,154173.22
2023-09-26T21:48:23.177Z,154184.88
2023-09-26T21:50:53.141Z,154166.75
2023-09-26T21:53:23.148Z,154148.53
2023-09-26T21:55:57.129Z,154182.31
2023-09-26T21:58:27.071Z,154179.69
2023-09-26T22:00:57.228Z,154173.22
2023-09-26T22:03:27.199Z,154169.31
2023-09-26T22:05:58.244Z,154151.16
2023-09-26T22:08:28.134Z,154140.78
2023-09-26T22:11:00.704Z,154130.38
2023-09-26T22:13:30.612Z,154114.75
2023-09-26T22:16:00.544Z,154103.09
2023-09-26T22:18:30.501Z,154114.75
2023-09-26T22:21:04.082Z,154117.38
2023-09-26T22:23:34.705Z,154104.38
2023-09-26T22:26:07.219Z,154078.41
2023-09-26T22:28:37.156Z,154071.94
2023-09-26T22:31:07.263Z,154056.38
2023-09-26T22:33:37.578Z,154047.28
2023-09-26T22:36:07.558Z,154038.19
2023-09-26T22:38:37.409Z,154012.19
2023-09-26T22:41:09.949Z,154021.31
2023-09-26T22:43:39.919Z,153996.59
2023-09-26T22:46:10.893Z,153978.41
2023-09-26T22:48:41.078Z,153982.31
2023-09-26T22:51:10.944Z,153961.50
2023-09-26T22:53:40.980Z,153949.84
2023-09-26T22:56:13.608Z,153961.50
2023-09-26T22:58:43.609Z,153968.03
2023-09-26T23:01:13.623Z,153962.84
2023-09-26T23:03:43.680Z,153933.00
2023-09-26T23:06:13.592Z,153951.13
2023-09-26T23:08:43.751Z,153943.38
2023-09-26T23:11:16.467Z,153939.47
2023-09-26T23:13:46.527Z,153956.31
2023-09-26T23:16:18.022Z,153969.31
2023-09-26T23:18:52.408Z,153987.50
2023-09-26T23:21:22.524Z,153992.69
2023-09-26T23:23:52.587Z,153991.41
2023-09-26T23:26:25.209Z,153987.50
2023-09-26T23:28:55.530Z,153961.50
2023-09-26T23:31:25.704Z,153955.03
2023-09-26T23:33:56.331Z,153979.69
2023-09-26T23:36:26.299Z,153955.03
2023-09-26T23:38:56.258Z,153942.09
2023-09-26T23:41:28.788Z,153922.59
2023-09-26T23:43:59.890Z,153933.00
2023-09-26T23:46:30.692Z,153933.00
2023-09-26T23:49:01.356Z,153933.00
2023-09-26T23:51:31.788Z,153938.19
2023-09-26T23:54:02.219Z,153945.94
2023-09-26T23:56:34.750Z,153936.91
2023-09-26T23:59:05.799Z,153927.78
